Time;durP1;ratioP1;P1;durP2;ratioP2;P2;SDS_P1;SDS_P2;PMS_P1;PMS_P2;Temp;Humidity;BMP_temperature;BMP_pressure;BME280_temperature;BME280_humidity;BME280_pressure;Samples;Min_cycle;Max_cycle;Signal;HPM_P1;HPM_P2
2021/01/13 00:00:55;;;;;;;;;;;;;;;;;;5012523;28;20292;-59
2021/01/13 00:03:22;;;;;;;;;;;;;;;;;;5012191;28;19925;-59
2021/01/13 00:05:49;;;;;;;;;;;;;;;;;;5012648;28;20288;-60
2021/01/13 00:08:17;;;;;;;;;;;;;;;;;;5012826;28;19929;-60
2021/01/13 00:10:44;;;;;;;;;;;;;;;;;;5011981;28;20353;-60
2021/01/13 00:13:11;;;;;;;;;;;;;;;;;;5012099;28;20604;-59
2021/01/13 00:15:38;;;;;;;;;;;;;;;;;;5012440;28;19929;-59
2021/01/13 00:18:05;;;;;;;;;;;;;;;;;;5010197;28;20368;-58
2021/01/13 00:20:32;;;;;;;;;;;;;;;;;;5011656;28;19926;-59
2021/01/13 00:23:01;;;;;;;;;;;;;;;;;;5015223;28;19948;-59
2021/01/13 00:25:28;;;;;;;;;;;;;;;;;;5011412;28;19956;-59
2021/01/13 00:27:55;;;;;;;;;;;;;;;;;;5012904;28;19929;-58
2021/01/13 00:30:22;;;;;;;;;;;;;;;;;;5011184;28;19925;-59
2021/01/13 00:32:49;;;;;;;;;;;;;;;;;;5008867;28;19926;-59
2021/01/13 00:35:16;;;;;;;;;;;;;;;;;;5012439;28;19930;-59
2021/01/13 00:37:44;;;;;;;;;;;;;;;;;;5011263;28;20276;-59
2021/01/13 00:40:11;;;;;;;;;;;;;;;;;;5013060;28;20278;-59
2021/01/13 00:42:38;;;;;;;;;;;;;;;;;;5012331;28;19936;-59
2021/01/13 00:45:05;;;;;;;;;;;;;;;;;;5011196;28;19934;-58
2021/01/13 00:47:32;;;;;;;;;;;;;;;;;;5011766;28;20300;-58
2021/01/13 00:49:59;;;;;;;;;;;;;;;;;;5011305;28;19929;-61
2021/01/13 00:52:26;;;;;;;;;;;;;;;;;;5007664;28;20033;-59
2021/01/13 00:54:54;;;;;;;;;;;;;;;;;;4996086;28;20360;-60
2021/01/13 00:57:21;;;;;;;;;;;;;;;;;;4998391;28;19929;-59
2021/01/13 00:59:48;;;;;;;;;;;;;;;;;;5006420;28;19932;-60
2021/01/13 01:02:15;;;;;;;;;;;;;;;;;;5010189;28;19936;-60
2021/01/13 01:04:42;;;;;;;;;;;;;;;;;;5009775;28;19926;-61
2021/01/13 01:07:10;;;;;;;;;;;;;;;;;;5011743;28;19925;-59
2021/01/13 01:09:37;;;;;;;;;;;;;;;;;;5010658;28;19935;-59
2021/01/13 01:12:05;;;;;;;;;;;;;;;;;;5011144;28;19925;-59
2021/01/13 01:14:32;;;;;;;;;;;;;;;;;;5002587;28;19929;-60
2021/01/13 01:16:59;;;;;;;;;;;;;;;;;;5003406;28;19947;-60
2021/01/13 01:19:26;;;;;;;;;;;;;;;;;;5010635;28;20301;-60
2021/01/13 01:21:54;;;;;;;;;;;;;;;;;;5011464;28;19925;-59
2021/01/13 01:24:21;;;;;;;;;;;;;;;;;;5010186;28;20324;-59
2021/01/13 01:26:48;;;;;;;;;;;;;;;;;;5010351;28;19925;-60
2021/01/13 01:29:15;;;;;;;;;;;;;;;;;;5009635;28;20366;-60
2021/01/13 01:31:44;;;;;;;;;;;;;;;;;;5009977;28;19930;-58
2021/01/13 01:34:11;;;;;;;;;;;;;;;;;;5010100;28;20031;-59
2021/01/13 01:36:38;;;;;;;;;;;;;;;;;;5010826;28;20039;-59
2021/01/13 01:39:05;;;;;;;;;;;;;;;;;;5009908;28;20313;-59
2021/01/13 01:41:32;;;;;;;;;;;;;;;;;;5010721;28;19941;-59
2021/01/13 01:44:00;;;;;;;;;;;;;;;;;;5010926;28;19925;-59
2021/01/13 01:46:27;;;;;;;;;;;;;;;;;;5010549;28;19929;-58
2021/01/13 01:48:54;;;;;;;;;;;;;;;;;;5015783;28;19933;-59
2021/01/13 01:51:21;;;;;;;;;;;;;;;;;;5009892;28;19926;-59
2021/01/13 01:53:49;;;;;;;;;;;;;;;;;;5010843;28;19926;-59
2021/01/13 01:56:16;;;;;;;;;;;;;;;;;;5010129;28;19929;-59
2021/01/13 01:58:43;;;;;;;;;;;;;;;;;;5010089;28;20343;-59
2021/01/13 02:01:10;;;;;;;;;;;;;;;;;;5009528;28;19936;-59
2021/01/13 02:03:37;;;;;;;;;;;;;;;;;;5007080;22;19930;-65
2021/01/13 02:06:04;;;;;;;;;;;;;;;;;;4990006;28;19929;-66
2021/01/13 02:08:31;;;;;;;;;;;;;;;;;;4991480;28;19925;-67
2021/01/13 02:10:58;;;;;;;;;;;;;;;;;;4987305;28;19925;-67
2021/01/13 02:13:26;;;;;;;;;;;;;;;;;;4992337;28;19925;-67
2021/01/13 02:15:53;;;;;;;;;;;;;;;;;;4992969;28;19926;-67
2021/01/13 02:18:21;;;;;;;;;;;;;;;;;;4994622;28;20028;-67
2021/01/13 02:20:48;;;;;;;;;;;;;;;;;;4995553;28;19933;-67
2021/01/13 02:23:15;;;;;;;;;;;;;;;;;;4996060;28;19997;-67
2021/01/13 02:25:42;;;;;;;;;;;;;;;;;;4996162;28;20028;-67
2021/01/13 02:28:09;;;;;;;;;;;;;;;;;;4995856;28;20341;-67
2021/01/13 02:30:36;;;;;;;;;;;;;;;;;;4995927;28;19933;-67
2021/01/13 02:33:03;;;;;;;;;;;;;;;;;;4995879;28;19930;-67
2021/01/13 02:35:31;;;;;;;;;;;;;;;;;;4998628;28;20017;-67
2021/01/13 02:37:58;;;;;;;;;;;;;;;;;;4995313;28;19957;-67
2021/01/13 02:40:25;;;;;;;;;;;;;;;;;;4995043;28;19965;-67
2021/01/13 02:42:52;;;;;;;;;;;;;;;;;;4995350;28;20024;-67
2021/01/13 02:45:22;;;;;;;;;;;;;;;;;;4995231;28;19986;-67
2021/01/13 02:47:49;;;;;;;;;;;;;;;;;;4986032;28;19930;-67
2021/01/13 02:50:17;;;;;;;;;;;;;;;;;;4991107;28;20024;-67
2021/01/13 02:52:44;;;;;;;;;;;;;;;;;;4995512;28;20489;-67
2021/01/13 02:55:11;;;;;;;;;;;;;;;;;;4996048;28;19973;-67
2021/01/13 02:57:38;;;;;;;;;;;;;;;;;;4995427;28;20461;-67
2021/01/13 03:00:06;;;;;;;;;;;;;;;;;;4995272;28;20358;-67
2021/01/13 03:02:33;;;;;;;;;;;;;;;;;;4993902;28;19969;-67
2021/01/13 03:05:00;;;;;;;;;;;;;;;;;;4992127;28;20499;-67
2021/01/13 03:07:27;;;;;;;;;;;;;;;;;;4992046;28;20028;-67
2021/01/13 03:09:54;;;;;;;;;;;;;;;;;;4991040;28;20009;-67
2021/01/13 03:12:21;;;;;;;;;;;;;;;;;;4990616;28;19930;-67
2021/01/13 03:14:49;;;;;;;;;;;;;;;;;;4991663;28;19937;-67
2021/01/13 03:17:16;;;;;;;;;;;;;;;;;;4991279;28;19948;-67
2021/01/13 03:19:43;;;;;;;;;;;;;;;;;;4990790;28;19930;-67
2021/01/13 03:22:10;;;;;;;;;;;;;;;;;;4985343;28;19929;-67
2021/01/13 03:24:37;;;;;;;;;;;;;;;;;;4990911;28;19984;-67
2021/01/13 03:27:04;;;;;;;;;;;;;;;;;;4990705;28;19940;-67
2021/01/13 03:29:31;;;;;;;;;;;;;;;;;;4990275;28;19930;-67
2021/01/13 03:31:58;;;;;;;;;;;;;;;;;;4990999;28;19929;-67
2021/01/13 03:34:26;;;;;;;;;;;;;;;;;;4991363;28;19941;-67
2021/01/13 03:36:53;;;;;;;;;;;;;;;;;;4990801;28;19926;-67
2021/01/13 03:39:20;;;;;;;;;;;;;;;;;;4990979;28;19929;-67
2021/01/13 03:41:47;;;;;;;;;;;;;;;;;;4990985;28;19930;-67
2021/01/13 03:44:15;;;;;;;;;;;;;;;;;;4990190;28;19948;-67
2021/01/13 03:46:42;;;;;;;;;;;;;;;;;;4990321;28;19930;-67
2021/01/13 03:49:10;;;;;;;;;;;;;;;;;;4989968;28;19930;-67
2021/01/13 03:51:37;;;;;;;;;;;;;;;;;;4990677;28;19930;-67
2021/01/13 03:54:05;;;;;;;;;;;;;;;;;;4990954;28;19934;-67
2021/01/13 03:56:32;;;;;;;;;;;;;;;;;;4990017;28;19975;-67
2021/01/13 03:58:59;;;;;;;;;;;;;;;;;;4990836;28;19929;-67
2021/01/13 04:01:26;;;;;;;;;;;;;;;;;;4990425;28;19944;-67
2021/01/13 04:03:53;;;;;;;;;;;;;;;;;;4989952;28;20013;-67
2021/01/13 04:06:20;;;;;;;;;;;;;;;;;;4990941;28;19930;-67
2021/01/13 04:08:47;;;;;;;;;;;;;;;;;;4989776;28;20316;-67
2021/01/13 04:11:15;;;;;;;;;;;;;;;;;;4990304;28;19926;-67
2021/01/13 04:13:42;;;;;;;;;;;;;;;;;;4990617;28;19929;-67
2021/01/13 04:16:09;;;;;;;;;;;;;;;;;;4990637;28;19929;-67
2021/01/13 04:18:36;;;;;;;;;;;;;;;;;;4990078;28;20020;-67
2021/01/13 04:21:04;;;;;;;;;;;;;;;;;;4989715;28;20407;-67
2021/01/13 04:23:31;;;;;;;;;;;;;;;;;;4990123;28;20313;-67
2021/01/13 04:25:58;;;;;;;;;;;;;;;;;;4990368;28;19930;-67
2021/01/13 04:28:25;;;;;;;;;;;;;;;;;;4990516;28;19936;-67
2021/01/13 04:30:52;;;;;;;;;;;;;;;;;;4989787;28;19926;-67
2021/01/13 04:33:19;;;;;;;;;;;;;;;;;;4989103;28;19932;-67
2021/01/13 04:35:47;;;;;;;;;;;;;;;;;;4990108;28;20266;-67
2021/01/13 04:38:14;;;;;;;;;;;;;;;;;;4990330;28;19937;-67
2021/01/13 04:40:41;;;;;;;;;;;;;;;;;;4989111;28;19926;-67
2021/01/13 04:43:08;;;;;;;;;;;;;;;;;;4989518;28;19989;-67
2021/01/13 04:45:35;;;;;;;;;;;;;;;;;;4990220;28;19932;-67
2021/01/13 04:48:02;;;;;;;;;;;;;;;;;;4989470;28;19955;-67
2021/01/13 04:50:29;;;;;;;;;;;;;;;;;;4989442;28;19930;-67
2021/01/13 04:52:56;;;;;;;;;;;;;;;;;;4989256;28;20073;-67
2021/01/13 04:55:23;;;;;;;;;;;;;;;;;;4989710;28;19952;-67
2021/01/13 04:57:51;;;;;;;;;;;;;;;;;;4990039;28;19929;-67
2021/01/13 05:00:18;;;;;;;;;;;;;;;;;;4973508;28;19925;-67
2021/01/13 05:02:45;;;;;;;;;;;;;;;;;;4989650;28;19926;-67
2021/01/13 05:05:12;;;;;;;;;;;;;;;;;;4989047;28;19934;-67
2021/01/13 05:07:40;;;;;;;;;;;;;;;;;;4989157;28;19929;-67
2021/01/13 05:10:07;;;;;;;;;;;;;;;;;;4988963;28;20025;-67
2021/01/13 05:12:34;;;;;;;;;;;;;;;;;;4986434;28;19946;-67
2021/01/13 05:15:01;;;;;;;;;;;;;;;;;;4988726;28;19933;-67
2021/01/13 05:17:28;;;;;;;;;;;;;;;;;;4989508;28;19926;-67
2021/01/13 05:19:55;;;;;;;;;;;;;;;;;;4988811;28;19934;-67
2021/01/13 05:22:22;;;;;;;;;;;;;;;;;;4989386;28;19929;-67
2021/01/13 05:24:50;;;;;;;;;;;;;;;;;;4989424;28;20239;-66
2021/01/13 05:27:17;;;;;;;;;;;;;;;;;;4989485;28;20033;-67
2021/01/13 05:29:45;;;;;;;;;;;;;;;;;;4988530;28;19934;-67
2021/01/13 05:32:12;;;;;;;;;;;;;;;;;;4978677;28;19930;-67
2021/01/13 05:34:39;;;;;;;;;;;;;;;;;;4989570;28;19940;-67
2021/01/13 05:37:07;;;;;;;;;;;;;;;;;;4988713;28;19936;-67
2021/01/13 05:39:34;;;;;;;;;;;;;;;;;;4989055;28;19930;-67
2021/01/13 05:42:02;;;;;;;;;;;;;;;;;;4989319;28;20266;-67
2021/01/13 05:44:29;;;;;;;;;;;;;;;;;;4989434;28;20012;-67
2021/01/13 05:46:57;;;;;;;;;;;;;;;;;;4989304;28;19929;-67
2021/01/13 05:49:24;;;;;;;;;;;;;;;;;;4989474;28;19957;-67
2021/01/13 05:51:51;;;;;;;;;;;;;;;;;;4991606;28;20130;-67
2021/01/13 05:54:19;;;;;;;;;;;;;;;;;;4992520;28;20385;-67
2021/01/13 05:56:46;;;;;;;;;;;;;;;;;;4988585;28;20325;-67
2021/01/13 05:59:14;;;;;;;;;;;;;;;;;;4992909;28;19934;-67
2021/01/13 06:01:42;;;;;;;;;;;;;;;;;;4993282;28;19926;-67
2021/01/13 06:04:09;;;;;;;;;;;;;;;;;;4993053;28;19996;-67
2021/01/13 06:06:36;;;;;;;;;;;;;;;;;;4992661;28;20028;-67
2021/01/13 06:09:03;;;;;;;;;;;;;;;;;;4992573;28;19926;-67
2021/01/13 06:11:43;;;;;;;;;;;;;;;;;;4993278;28;19925;-67
2021/01/13 06:14:10;;;;;;;;;;;;;;;;;;4989755;28;20462;-70
2021/01/13 06:16:38;;;;;;;;;;;;;;;;;;4977049;28;20017;-67
2021/01/13 06:19:05;;;;;;;;;;;;;;;;;;4992645;28;19977;-67
2021/01/13 06:21:33;;;;;;;;;;;;;;;;;;4993651;28;19930;-67
2021/01/13 06:24:02;;;;;;;;;;;;;;;;;;4991760;28;19991;-67
2021/01/13 06:26:29;;;;;;;;;;;;;;;;;;4991638;28;19933;-66
2021/01/13 06:28:56;;;;;;;;;;;;;;;;;;4992885;28;19975;-67
2021/01/13 06:31:23;;;;;;;;;;;;;;;;;;4991324;28;20456;-67
2021/01/13 06:33:51;;;;;;;;;;;;;;;;;;4992247;28;20014;-67
2021/01/13 06:36:18;;;;;;;;;;;;;;;;;;4991891;28;19933;-66
2021/01/13 06:38:46;;;;;;;;;;;;;;;;;;4989622;28;19953;-67
2021/01/13 06:41:13;;;;;;;;;;;;;;;;;;4993733;28;20425;-67
2021/01/13 06:43:41;;;;;;;;;;;;;;;;;;4992396;28;20037;-66
2021/01/13 06:46:08;;;;;;;;;;;;;;;;;;4989119;28;19972;-67
2021/01/13 06:48:35;;;;;;;;;;;;;;;;;;4990384;28;20019;-67
2021/01/13 06:51:02;;;;;;;;;;;;;;;;;;4990019;28;19934;-66
2021/01/13 06:53:30;;;;;;;;;;;;;;;;;;4992316;28;19930;-66
2021/01/13 06:55:57;;;;;;;;;;;;;;;;;;4990570;28;19933;-70
2021/01/13 06:58:24;;;;;;;;;;;;;;;;;;4992346;28;19934;-66
2021/01/13 07:00:51;;;;;;;;;;;;;;;;;;4990156;28;20428;-66
2021/01/13 07:03:19;;;;;;;;;;;;;;;;;;4989308;28;19981;-66
2021/01/13 07:05:49;;;;;;;;;;;;;;;;;;4984449;28;20719;-67
2021/01/13 07:08:17;;;;;;;;;;;;;;;;;;4987709;28;20417;-66
2021/01/13 07:10:45;;;;;;;;;;;;;;;;;;4984670;28;20414;-67
2021/01/13 07:13:12;;;;;;;;;;;;;;;;;;4985145;28;20189;-66
2021/01/13 07:15:40;;;;;;;;;;;;;;;;;;4985506;28;20381;-67
2021/01/13 07:18:08;;;;;;;;;;;;;;;;;;4987107;28;20381;-67
2021/01/13 07:20:35;;;;;;;;;;;;;;;;;;4986833;28;19995;-67
2021/01/13 07:23:03;;;;;;;;;;;;;;;;;;4985599;28;19934;-67
2021/01/13 07:25:30;;;;;;;;;;;;;;;;;;4983601;28;19980;-67
2021/01/13 07:27:57;;;;;;;;;;;;;;;;;;4985488;28;19956;-67
2021/01/13 07:30:24;;;;;;;;;;;;;;;;;;4986428;28;20049;-67
2021/01/13 07:32:52;;;;;;;;;;;;;;;;;;4986902;28;20321;-67
2021/01/13 07:35:19;;;;;;;;;;;;;;;;;;4984340;28;20374;-67
2021/01/13 07:37:46;;;;;;;;;;;;;;;;;;4986579;28;20004;-67
2021/01/13 07:40:14;;;;;;;;;;;;;;;;;;4984634;28;20024;-67
2021/01/13 07:42:42;;;;;;;;;;;;;;;;;;4987361;28;19980;-67
2021/01/13 07:45:11;;;;;;;;;;;;;;;;;;4988285;28;20028;-66
2021/01/13 07:47:38;;;;;;;;;;;;;;;;;;4988574;28;20277;-67
2021/01/13 07:50:06;;;;;;;;;;;;;;;;;;4987963;28;19926;-67
2021/01/13 07:52:34;;;;;;;;;;;;;;;;;;4987149;28;19929;-67
2021/01/13 07:55:02;;;;;;;;;;;;;;;;;;4986912;28;19930;-67
2021/01/13 07:57:29;;;;;;;;;;;;;;;;;;4985440;28;19925;-67
2021/01/13 07:59:57;;;;;;;;;;;;;;;;;;4977424;28;19930;-67
2021/01/13 08:02:26;;;;;;;;;;;;;;;;;;4983760;28;20301;-67
2021/01/13 08:04:54;;;;;;;;;;;;;;;;;;4987244;28;19973;-67
2021/01/13 08:07:21;;;;;;;;;;;;;;;;;;4986126;28;19944;-67
2021/01/13 08:09:49;;;;;;;;;;;;;;;;;;4984869;28;19953;-67
2021/01/13 08:12:16;;;;;;;;;;;;;;;;;;4985814;28;20016;-67
2021/01/13 08:14:44;;;;;;;;;;;;;;;;;;4991554;28;19991;-67
2021/01/13 08:17:24;;;;;;;;;;;;;;;;;;4982971;28;19937;-67
2021/01/13 08:19:52;;;;;;;;;;;;;;;;;;4982998;28;20361;-67
2021/01/13 08:22:25;;;;;;;;;;;;;;;;;;4985530;28;19940;-67
2021/01/13 08:24:59;;;;;;;;;;;;;;;;;;4988459;28;19932;-67
2021/01/13 08:27:29;;;;;;;;;;;;;;;;;;4988094;28;20247;-67
2021/01/13 08:29:57;;;;;;;;;;;;;;;;;;4989661;28;19930;-67
2021/01/13 08:32:24;;;;;;;;;;;;;;;;;;4989641;28;19944;-67
2021/01/13 08:34:52;;;;;;;;;;;;;;;;;;4988581;28;20432;-66
2021/01/13 08:37:22;;;;;;;;;;;;;;;;;;4987352;28;19933;-66
2021/01/13 08:39:57;;;;;;;;;;;;;;;;;;4989676;28;19930;-66
2021/01/13 08:42:25;;;;;;;;;;;;;;;;;;4988611;28;19934;-66
2021/01/13 08:44:53;;;;;;;;;;;;;;;;;;4988369;28;20020;-66
2021/01/13 08:47:21;;;;;;;;;;;;;;;;;;4987839;28;20206;-66
2021/01/13 08:49:49;;;;;;;;;;;;;;;;;;4991124;28;19934;-65
2021/01/13 08:52:16;;;;;;;;;;;;;;;;;;4989096;28;20774;-66
2021/01/13 08:54:44;;;;;;;;;;;;;;;;;;4988834;28;19952;-66
2021/01/13 08:57:13;;;;;;;;;;;;;;;;;;4988738;28;19930;-66
2021/01/13 08:59:42;;;;;;;;;;;;;;;;;;4984332;28;20361;-66
2021/01/13 09:02:11;;;;;;;;;;;;;;;;;;4987197;28;19933;-66
2021/01/13 09:04:39;;;;;;;;;;;;;;;;;;4985041;28;19983;-66
2021/01/13 09:07:14;;;;;;;;;;;;;;;;;;4985297;28;20254;-66
2021/01/13 09:09:42;;;;;;;;;;;;;;;;;;4988714;28;20301;-66
2021/01/13 09:12:09;;;;;;;;;;;;;;;;;;4987844;28;19933;-66
2021/01/13 09:14:37;;;;;;;;;;;;;;;;;;4987833;28;20023;-66
2021/01/13 09:17:06;;;;;;;;;;;;;;;;;;4986283;28;19934;-66
2021/01/13 09:19:34;;;;;;;;;;;;;;;;;;4982473;28;19929;-66
2021/01/13 09:22:01;;;;;;;;;;;;;;;;;;4994496;28;19964;-66
2021/01/13 09:24:30;;;;;;;;;;;;;;;;;;4987443;28;19937;-66
2021/01/13 09:26:59;;;;;;;;;;;;;;;;;;4988464;28;19934;-67
2021/01/13 09:29:28;;;;;;;;;;;;;;;;;;4987627;28;19984;-66
2021/01/13 09:31:56;;;;;;;;;;;;;;;;;;4987020;28;20341;-66
2021/01/13 09:34:23;;;;;;;;;;;;;;;;;;4988230;28;19926;-66
2021/01/13 09:36:51;;;;;;;;;;;;;;;;;;4986850;28;20424;-66
2021/01/13 09:39:23;;;;;;;;;;;;;;;;;;4987931;28;20323;-67
2021/01/13 09:41:50;;;;;;;;;;;;;;;;;;4997773;28;19930;-66
2021/01/13 09:44:18;;;;;;;;;;;;;;;;;;4998590;28;19926;-65
2021/01/13 09:46:46;;;;;;;;;;;;;;;;;;4990160;28;19934;-66
2021/01/13 09:49:14;;;;;;;;;;;;;;;;;;4993631;28;19929;-67
2021/01/13 09:51:41;;;;;;;;;;;;;;;;;;4992127;28;19925;-66
2021/01/13 09:54:10;;;;;;;;;;;;;;;;;;5000119;28;19926;-66
2021/01/13 09:56:38;;;;;;;;;;;;;;;;;;4990654;28;19933;-66
2021/01/13 09:59:06;;;;;;;;;;;;;;;;;;4988706;28;19929;-66
2021/01/13 10:01:36;;;;;;;;;;;;;;;;;;4984507;28;19981;-66
2021/01/13 10:04:04;;;;;;;;;;;;;;;;;;4984790;28;20008;-66
2021/01/13 10:06:31;;;;;;;;;;;;;;;;;;4985364;28;19985;-67
2021/01/13 10:09:16;;;;;;;;;;;;;;;;;;4985407;28;19926;-67
2021/01/13 10:11:44;;;;;;;;;;;;;;;;;;4988082;28;19929;-67
2021/01/13 10:14:13;;;;;;;;;;;;;;;;;;4987321;28;19932;-67
2021/01/13 10:16:41;;;;;;;;;;;;;;;;;;4985712;28;20013;-67
2021/01/13 10:19:10;;;;;;;;;;;;;;;;;;4985637;28;19930;-67
2021/01/13 10:21:38;;;;;;;;;;;;;;;;;;4983324;28;19969;-67
2021/01/13 10:24:06;;;;;;;;;;;;;;;;;;4987460;28;20308;-66
2021/01/13 10:26:34;;;;;;;;;;;;;;;;;;4986058;28;20275;-67
2021/01/13 10:29:01;;;;;;;;;;;;;;;;;;4987582;28;19933;-67
2021/01/13 10:31:29;;;;;;;;;;;;;;;;;;4987061;28;19930;-67
2021/01/13 10:33:57;;;;;;;;;;;;;;;;;;4985781;28;19937;-67
2021/01/13 10:36:25;;;;;;;;;;;;;;;;;;4988543;28;20282;-67
2021/01/13 10:38:53;;;;;;;;;;;;;;;;;;4992798;28;19961;-66
2021/01/13 10:41:20;;;;;;;;;;;;;;;;;;4987252;28;19945;-67
2021/01/13 10:43:48;;;;;;;;;;;;;;;;;;4982281;28;19937;-67
2021/01/13 10:46:16;;;;;;;;;;;;;;;;;;4990384;28;19930;-67
2021/01/13 10:48:44;;;;;;;;;;;;;;;;;;4987977;28;20398;-67
2021/01/13 10:51:12;;;;;;;;;;;;;;;;;;4989977;28;19973;-67
2021/01/13 10:53:39;;;;;;;;;;;;;;;;;;4992719;28;19930;-67
2021/01/13 10:56:07;;;;;;;;;;;;;;;;;;4991864;28;19976;-67
2021/01/13 10:58:34;;;;;;;;;;;;;;;;;;4990210;28;19937;-68
2021/01/13 11:01:02;;;;;;;;;;;;;;;;;;4987080;28;20421;-67
2021/01/13 11:03:29;;;;;;;;;;;;;;;;;;4985687;28;19930;-67
2021/01/13 11:05:57;;;;;;;;;;;;;;;;;;4989936;28;19929;-67
2021/01/13 11:08:25;;;;;;;;;;;;;;;;;;4988895;28;19977;-67
2021/01/13 11:10:52;;;;;;;;;;;;;;;;;;4988442;28;19930;-67
2021/01/13 11:13:20;;;;;;;;;;;;;;;;;;4988786;28;19968;-67
2021/01/13 11:15:48;;;;;;;;;;;;;;;;;;4989650;28;20387;-67
2021/01/13 11:18:16;;;;;;;;;;;;;;;;;;4991528;28;19940;-67
2021/01/13 11:20:43;;;;;;;;;;;;;;;;;;4986586;28;20378;-68
2021/01/13 11:23:11;;;;;;;;;;;;;;;;;;4988816;28;19930;-68
2021/01/13 11:25:40;;;;;;;;;;;;;;;;;;4989714;28;19930;-68
2021/01/13 11:28:08;;;;;;;;;;;;;;;;;;4991977;28;19929;-67
2021/01/13 11:30:36;;;;;;;;;;;;;;;;;;4986663;28;19942;-68
2021/01/13 11:33:04;;;;;;;;;;;;;;;;;;4996350;28;19929;-66
2021/01/13 11:35:32;;;;;;;;;;;;;;;;;;4990024;28;19930;-66
2021/01/13 11:37:59;;;;;;;;;;;;;;;;;;4991171;28;19926;-66
2021/01/13 11:40:27;;;;;;;;;;;;;;;;;;4985911;28;19930;-66
2021/01/13 11:42:55;;;;;;;;;;;;;;;;;;4990104;28;19936;-67
2021/01/13 11:45:23;;;;;;;;;;;;;;;;;;4990022;28;20060;-68
2021/01/13 11:47:51;;;;;;;;;;;;;;;;;;4990411;28;19946;-67
2021/01/13 11:50:19;;;;;;;;;;;;;;;;;;4989951;28;20293;-67
2021/01/13 11:52:47;;;;;;;;;;;;;;;;;;4987865;28;20013;-66
2021/01/13 11:55:15;;;;;;;;;;;;;;;;;;4985323;28;19936;-66
2021/01/13 11:57:43;;;;;;;;;;;;;;;;;;4988994;28;19926;-66
2021/01/13 12:00:10;;;;;;;;;;;;;;;;;;4984882;28;19926;-67
2021/01/13 12:02:39;;;;;;;;;;;;;;;;;;4978060;28;19968;-67
2021/01/13 12:05:06;;;;;;;;;;;;;;;;;;4988943;28;19937;-67
2021/01/13 12:07:34;;;;;;;;;;;;;;;;;;4986200;28;19933;-67
2021/01/13 12:10:02;;;;;;;;;;;;;;;;;;4992043;28;19929;-67
2021/01/13 12:12:30;;;;;;;;;;;;;;;;;;4988097;28;20307;-67
2021/01/13 12:15:00;;;;;;;;;;;;;;;;;;4988511;28;19930;-66
2021/01/13 12:17:29;;;;;;;;;;;;;;;;;;4987453;28;19956;-67
2021/01/13 12:19:56;;;;;;;;;;;;;;;;;;4996489;28;20007;-67
2021/01/13 12:22:25;;;;;;;;;;;;;;;;;;4981875;28;19961;-67
2021/01/13 12:24:52;;;;;;;;;;;;;;;;;;4983425;28;20395;-67
2021/01/13 12:27:20;;;;;;;;;;;;;;;;;;4989550;28;20021;-67
2021/01/13 12:29:47;;;;;;;;;;;;;;;;;;4987684;28;19937;-67
2021/01/13 12:32:15;;;;;;;;;;;;;;;;;;4988043;28;19926;-67
2021/01/13 12:34:43;;;;;;;;;;;;;;;;;;4984024;28;19926;-67
2021/01/13 12:37:11;;;;;;;;;;;;;;;;;;4987864;28;20358;-66
2021/01/13 12:39:42;;;;;;;;;;;;;;;;;;4985920;28;20252;-67
2021/01/13 12:42:10;;;;;;;;;;;;;;;;;;4985846;28;19930;-67
2021/01/13 12:44:37;;;;;;;;;;;;;;;;;;4987971;28;19976;-67
2021/01/13 12:47:09;;;;;;;;;;;;;;;;;;4980331;28;20493;-67
2021/01/13 12:49:37;;;;;;;;;;;;;;;;;;4985478;28;20351;-67
2021/01/13 12:52:05;;;;;;;;;;;;;;;;;;4986045;28;19930;-67
2021/01/13 12:54:32;;;;;;;;;;;;;;;;;;4981404;28;19930;-68
2021/01/13 12:57:01;;;;;;;;;;;;;;;;;;4988834;28;19933;-67
2021/01/13 12:59:29;;;;;;;;;;;;;;;;;;4987485;28;19980;-67
2021/01/13 13:01:56;;;;;;;;;;;;;;;;;;4983794;28;19960;-68
2021/01/13 13:04:24;;;;;;;;;;;;;;;;;;4987659;28;19937;-68
2021/01/13 13:06:52;;;;;;;;;;;;;;;;;;4991528;28;19929;-67
2021/01/13 13:09:20;;;;;;;;;;;;;;;;;;4986913;28;20243;-67
2021/01/13 13:11:48;;;;;;;;;;;;;;;;;;4988318;28;20376;-68
2021/01/13 13:14:16;;;;;;;;;;;;;;;;;;4988260;28;19930;-67
2021/01/13 13:16:44;;;;;;;;;;;;;;;;;;4986775;28;19937;-67
2021/01/13 13:19:12;;;;;;;;;;;;;;;;;;4985750;28;19926;-67
2021/01/13 13:21:44;;;;;;;;;;;;;;;;;;4977245;28;20251;-68
2021/01/13 13:24:12;;;;;;;;;;;;;;;;;;4988450;28;20345;-68
2021/01/13 13:26:41;;;;;;;;;;;;;;;;;;4987445;28;20421;-67
2021/01/13 13:29:09;;;;;;;;;;;;;;;;;;4987836;28;19929;-67
2021/01/13 13:31:37;;;;;;;;;;;;;;;;;;4987395;28;20004;-67
2021/01/13 13:34:04;;;;;;;;;;;;;;;;;;4987845;28;19936;-67
2021/01/13 13:36:32;;;;;;;;;;;;;;;;;;4989915;28;19930;-66
2021/01/13 13:38:59;;;;;;;;;;;;;;;;;;4989165;28;19930;-66
2021/01/13 13:41:28;;;;;;;;;;;;;;;;;;4988639;28;19944;-66
2021/01/13 13:43:55;;;;;;;;;;;;;;;;;;4987186;28;19930;-66
2021/01/13 13:46:23;;;;;;;;;;;;;;;;;;4989807;28;19929;-67
2021/01/13 13:48:50;;;;;;;;;;;;;;;;;;4986837;28;19953;-66
2021/01/13 13:51:19;;;;;;;;;;;;;;;;;;4985833;28;19926;-66
2021/01/13 13:53:46;;;;;;;;;;;;;;;;;;4988776;28;20416;-66
2021/01/13 13:56:14;;;;;;;;;;;;;;;;;;4987778;28;19933;-66
2021/01/13 13:58:41;;;;;;;;;;;;;;;;;;4987188;28;19940;-67
2021/01/13 14:01:09;;;;;;;;;;;;;;;;;;4988137;28;19936;-67
2021/01/13 14:03:39;;;;;;;;;;;;;;;;;;4988065;28;20300;-67
2021/01/13 14:06:07;;;;;;;;;;;;;;;;;;4988789;28;19934;-67
2021/01/13 14:08:34;;;;;;;;;;;;;;;;;;4989092;28;19926;-67
2021/01/13 14:11:02;;;;;;;;;;;;;;;;;;4986423;28;19936;-67
2021/01/13 14:13:30;;;;;;;;;;;;;;;;;;4991649;28;20381;-67
2021/01/13 14:15:58;;;;;;;;;;;;;;;;;;4992156;28;19930;-66
2021/01/13 14:18:26;;;;;;;;;;;;;;;;;;4988032;28;20133;-67
2021/01/13 14:20:54;;;;;;;;;;;;;;;;;;4991051;28;19926;-67
2021/01/13 14:23:22;;;;;;;;;;;;;;;;;;4992345;28;19934;-67
2021/01/13 14:25:50;;;;;;;;;;;;;;;;;;4990666;28;20088;-67
2021/01/13 14:28:17;;;;;;;;;;;;;;;;;;4992887;28;20428;-67
2021/01/13 14:30:45;;;;;;;;;;;;;;;;;;4990528;28;19936;-67
2021/01/13 14:33:13;;;;;;;;;;;;;;;;;;4992246;28;20258;-67
2021/01/13 14:35:42;;;;;;;;;;;;;;;;;;4991373;28;19982;-67
2021/01/13 14:38:10;;;;;;;;;;;;;;;;;;4991149;28;19937;-67
2021/01/13 14:40:38;;;;;;;;;;;;;;;;;;4990161;28;20000;-67
2021/01/13 14:43:06;;;;;;;;;;;;;;;;;;4991429;28;19936;-67
2021/01/13 14:45:33;;;;;;;;;;;;;;;;;;4990717;28;19929;-67
2021/01/13 14:48:01;;;;;;;;;;;;;;;;;;4991069;28;20233;-67
2021/01/13 14:50:29;;;;;;;;;;;;;;;;;;4987568;28;19930;-68
2021/01/13 14:52:58;;;;;;;;;;;;;;;;;;4991108;28;19937;-68
2021/01/13 14:55:26;;;;;;;;;;;;;;;;;;4990477;28;19934;-68
2021/01/13 14:57:53;;;;;;;;;;;;;;;;;;4992513;28;19930;-69
2021/01/13 15:00:22;;;;;;;;;;;;;;;;;;4988980;28;20492;-68
2021/01/13 15:02:49;;;;;;;;;;;;;;;;;;4991525;28;19926;-68
2021/01/13 15:05:17;;;;;;;;;;;;;;;;;;4990261;28;19934;-68
2021/01/13 15:07:44;;;;;;;;;;;;;;;;;;4990786;28;19926;-68
2021/01/13 15:10:12;;;;;;;;;;;;;;;;;;4986335;28;19929;-66
2021/01/13 15:12:54;;;;;;;;;;;;;;;;;;4991182;28;20020;-66
2021/01/13 15:15:22;;;;;;;;;;;;;;;;;;4971493;28;19930;-66
2021/01/13 15:17:49;;;;;;;;;;;;;;;;;;4982070;28;20036;-66
2021/01/13 15:20:17;;;;;;;;;;;;;;;;;;4989660;28;19933;-67
2021/01/13 15:22:45;;;;;;;;;;;;;;;;;;4990645;28;19936;-67
2021/01/13 15:25:13;;;;;;;;;;;;;;;;;;4990149;28;19932;-67
2021/01/13 15:27:41;;;;;;;;;;;;;;;;;;4990075;28;19933;-67
2021/01/13 15:30:09;;;;;;;;;;;;;;;;;;4988959;28;20021;-66
2021/01/13 15:32:36;;;;;;;;;;;;;;;;;;4990923;28;19929;-66
2021/01/13 15:35:04;;;;;;;;;;;;;;;;;;4989967;28;19934;-67
2021/01/13 15:37:31;;;;;;;;;;;;;;;;;;4990484;28;19936;-67
2021/01/13 15:39:59;;;;;;;;;;;;;;;;;;4989748;28;20385;-67
2021/01/13 15:42:26;;;;;;;;;;;;;;;;;;4990340;28;19933;-67
2021/01/13 15:44:54;;;;;;;;;;;;;;;;;;4990959;28;19937;-67
2021/01/13 15:47:21;;;;;;;;;;;;;;;;;;4990017;28;19930;-66
2021/01/13 15:49:49;;;;;;;;;;;;;;;;;;4988041;28;19926;-66
2021/01/13 15:52:17;;;;;;;;;;;;;;;;;;5000122;28;20352;-67
2021/01/13 15:54:44;;;;;;;;;;;;;;;;;;4998219;28;19942;-67
2021/01/13 15:57:12;;;;;;;;;;;;;;;;;;4990079;28;19930;-66
2021/01/13 15:59:40;;;;;;;;;;;;;;;;;;4988866;28;19937;-67
2021/01/13 16:02:08;;;;;;;;;;;;;;;;;;4989610;28;19930;-67
2021/01/13 16:04:35;;;;;;;;;;;;;;;;;;4989400;28;19926;-66
2021/01/13 16:07:02;;;;;;;;;;;;;;;;;;4982585;28;20298;-66
2021/01/13 16:09:30;;;;;;;;;;;;;;;;;;4986878;28;20643;-67
2021/01/13 16:11:57;;;;;;;;;;;;;;;;;;4989187;28;19934;-67
2021/01/13 16:14:25;;;;;;;;;;;;;;;;;;4989392;28;19932;-66
2021/01/13 16:16:52;;;;;;;;;;;;;;;;;;4989375;28;19926;-66
2021/01/13 16:19:19;;;;;;;;;;;;;;;;;;4988343;28;20390;-67
2021/01/13 16:21:47;;;;;;;;;;;;;;;;;;4990128;28;20044;-67
2021/01/13 16:24:15;;;;;;;;;;;;;;;;;;4988947;28;20013;-67
2021/01/13 16:26:42;;;;;;;;;;;;;;;;;;4970336;28;19937;-66
2021/01/13 16:29:09;;;;;;;;;;;;;;;;;;4980537;28;19929;-67
2021/01/13 16:31:37;;;;;;;;;;;;;;;;;;4989204;28;20385;-67
2021/01/13 16:34:04;;;;;;;;;;;;;;;;;;4989242;28;19947;-67
2021/01/13 16:36:32;;;;;;;;;;;;;;;;;;4975714;28;19926;-67
2021/01/13 16:38:59;;;;;;;;;;;;;;;;;;4985089;28;19956;-67
2021/01/13 16:41:27;;;;;;;;;;;;;;;;;;4985304;28;19940;-67
2021/01/13 16:43:55;;;;;;;;;;;;;;;;;;4979852;28;19933;-67
2021/01/13 16:46:23;;;;;;;;;;;;;;;;;;4985861;28;20043;-67
2021/01/13 16:48:50;;;;;;;;;;;;;;;;;;4984321;28;19930;-67